createdAt,value
2022-12-03T00:02:26.047Z,4.85
2022-12-03T00:04:53.584Z,4.35
2022-12-03T00:07:21.041Z,4.28
2022-12-03T00:09:51.133Z,4.25
2022-12-03T00:12:18.504Z,3.72
2022-12-03T00:14:45.760Z,4.70
2022-12-03T00:17:13.008Z,3.95
2022-12-03T00:19:40.358Z,4.13
2022-12-03T00:22:07.682Z,4.65
2022-12-03T00:24:34.966Z,4.57
2022-12-03T00:27:02.609Z,4.00
2022-12-03T00:29:29.878Z,4.65
2022-12-03T00:31:57.184Z,4.93
2022-12-03T00:34:24.434Z,4.32
2022-12-03T00:36:51.714Z,4.20
2022-12-03T00:39:18.972Z,4.80
2022-12-03T00:41:46.399Z,5.32
2022-12-03T00:44:13.696Z,4.13
2022-12-03T00:46:41.094Z,4.20
2022-12-03T00:49:08.470Z,3.78
2022-12-03T00:51:35.989Z,4.70
2022-12-03T00:54:03.370Z,4.18
2022-12-03T00:56:30.636Z,4.60
2022-12-03T00:58:57.914Z,3.97
2022-12-03T01:01:25.219Z,3.80
2022-12-03T01:03:52.490Z,4.95
2022-12-03T01:06:19.732Z,4.38
2022-12-03T01:08:47.066Z,3.92
2022-12-03T01:11:33.232Z,4.45
2022-12-03T01:14:00.536Z,4.50
2022-12-03T01:16:28.034Z,4.85
2022-12-03T01:18:55.454Z,3.65
2022-12-03T01:21:22.806Z,4.15
2022-12-03T01:23:50.053Z,3.95
2022-12-03T01:26:17.320Z,3.80
2022-12-03T01:28:44.741Z,4.15
2022-12-03T01:31:30.574Z,3.80
2022-12-03T01:33:57.935Z,4.70
2022-12-03T01:36:25.230Z,4.05
2022-12-03T01:38:52.516Z,4.63
2022-12-03T01:41:20.515Z,4.85
2022-12-03T01:43:48.249Z,5.43
2022-12-03T01:46:17.582Z,4.55
2022-12-03T01:48:45.286Z,4.78
2022-12-03T01:51:13.760Z,5.05
2022-12-03T01:53:41.172Z,5.18
2022-12-03T01:56:09.863Z,4.10
2022-12-03T01:58:37.108Z,5.40
2022-12-03T02:01:07.520Z,4.38
2022-12-03T02:03:35.461Z,4.45
2022-12-03T02:06:02.780Z,3.47
2022-12-03T02:08:37.458Z,4.07
2022-12-03T02:11:23.258Z,4.20
2022-12-03T02:13:52.202Z,4.18
2022-12-03T02:16:19.670Z,4.47
2022-12-03T02:18:47.188Z,3.92
2022-12-03T02:21:23.705Z,3.55
2022-12-03T02:23:59.139Z,4.03
2022-12-03T02:26:26.485Z,4.00
2022-12-03T02:28:54.003Z,4.28
2022-12-03T02:31:21.502Z,4.68
2022-12-03T02:33:48.945Z,4.93
2022-12-03T02:36:16.471Z,4.43
2022-12-03T02:38:44.548Z,4.35
2022-12-03T02:41:33.489Z,4.47
2022-12-03T02:44:00.874Z,4.72
2022-12-03T02:46:28.259Z,4.20
2022-12-03T02:48:55.689Z,4.93
2022-12-03T02:51:23.103Z,4.40
2022-12-03T02:53:51.619Z,4.65
2022-12-03T02:56:20.559Z,4.43
2022-12-03T02:58:48.956Z,4.32
2022-12-03T03:01:17.127Z,4.28
2022-12-03T03:03:45.522Z,4.55
2022-12-03T03:06:13.104Z,3.88
2022-12-03T03:08:42.430Z,4.28
2022-12-03T03:11:09.655Z,3.50
2022-12-03T03:13:37.729Z,4.22
2022-12-03T03:16:05.917Z,3.90
2022-12-03T03:18:34.152Z,4.60
2022-12-03T03:21:01.642Z,4.00
2022-12-03T03:23:29.225Z,3.85
2022-12-03T03:26:01.126Z,3.95
2022-12-03T03:28:29.358Z,3.28
2022-12-03T03:30:57.340Z,3.83
2022-12-03T03:33:24.605Z,3.30
2022-12-03T03:35:51.930Z,3.67
2022-12-03T03:38:20.150Z,3.72
2022-12-03T03:40:48.938Z,4.03
2022-12-03T03:43:16.302Z,4.00
2022-12-03T03:45:44.493Z,3.00
2022-12-03T03:48:12.986Z,4.50
2022-12-03T03:50:40.929Z,4.22
2022-12-03T03:53:08.331Z,3.95
2022-12-03T03:55:35.680Z,4.15
2022-12-03T03:58:03.017Z,3.83
2022-12-03T04:00:31.190Z,4.47
2022-12-03T04:02:58.455Z,3.25
2022-12-03T04:05:25.823Z,3.58
2022-12-03T04:07:53.191Z,3.50
2022-12-03T04:10:39.124Z,3.72
2022-12-03T04:13:06.907Z,3.67
2022-12-03T04:15:34.165Z,3.92
2022-12-03T04:18:20.437Z,3.25
2022-12-03T04:20:47.766Z,3.95
2022-12-03T04:23:15.106Z,4.60
2022-12-03T04:26:00.936Z,3.40
2022-12-03T04:28:46.682Z,3.33
2022-12-03T04:31:32.909Z,3.60
2022-12-03T04:34:18.934Z,3.35
2022-12-03T04:36:46.288Z,4.03
2022-12-03T04:39:13.587Z,3.42
2022-12-03T04:41:40.877Z,3.72
2022-12-03T04:44:27.019Z,3.30
2022-12-03T04:46:54.418Z,3.50
2022-12-03T04:49:22.131Z,4.45
2022-12-03T04:51:49.451Z,3.20
2022-12-03T04:54:16.768Z,3.33
2022-12-03T04:56:44.121Z,3.45
2022-12-03T04:59:16.042Z,3.42
2022-12-03T05:01:44.102Z,4.30
2022-12-03T05:04:12.130Z,3.63
2022-12-03T05:06:39.356Z,3.63
2022-12-03T05:09:06.662Z,3.13
2022-12-03T05:11:33.927Z,3.65
2022-12-03T05:14:01.198Z,2.97
2022-12-03T05:16:28.552Z,3.28
2022-12-03T05:18:55.922Z,3.22
2022-12-03T05:21:23.256Z,3.92
2022-12-03T05:23:50.715Z,4.22
2022-12-03T05:26:18.134Z,5.25
2022-12-03T05:28:45.396Z,3.72
2022-12-03T05:31:13.036Z,4.47
2022-12-03T05:33:44.204Z,4.00
2022-12-03T05:36:11.921Z,4.30
2022-12-03T05:38:39.504Z,4.53
2022-12-03T05:41:25.685Z,5.70
2022-12-03T05:43:52.983Z,4.90
2022-12-03T05:46:20.463Z,4.93
2022-12-03T05:48:47.872Z,5.47
2022-12-03T05:51:15.127Z,6.97
2022-12-03T05:53:42.409Z,5.95
2022-12-03T05:56:09.815Z,7.20
2022-12-03T05:58:37.064Z,6.35
2022-12-03T06:01:04.343Z,7.13
2022-12-03T06:03:31.866Z,6.63
2022-12-03T06:06:01.332Z,6.97
2022-12-03T06:08:28.639Z,7.45
2022-12-03T06:10:55.934Z,7.45
2022-12-03T06:13:23.224Z,6.65
2022-12-03T06:15:50.574Z,7.80
2022-12-03T06:18:18.326Z,7.13
2022-12-03T06:20:45.818Z,9.77
2022-12-03T06:23:13.137Z,7.85
2022-12-03T06:25:40.425Z,6.93
2022-12-03T06:28:09.202Z,7.03
2022-12-03T06:30:36.876Z,6.43
2022-12-03T06:33:04.248Z,6.40
2022-12-03T06:35:31.550Z,7.15
2022-12-03T06:37:58.983Z,6.82
2022-12-03T06:40:26.281Z,7.10
2022-12-03T06:42:55.339Z,6.78
2022-12-03T06:45:22.653Z,6.30
2022-12-03T06:47:49.903Z,6.97
2022-12-03T06:50:17.309Z,8.35
2022-12-03T06:52:44.614Z,7.28
2022-12-03T06:55:11.901Z,6.93
2022-12-03T06:57:39.151Z,6.63
2022-12-03T07:00:08.809Z,6.38
2022-12-03T07:02:36.272Z,7.05
2022-12-03T07:05:03.882Z,6.40
2022-12-03T07:07:31.234Z,5.93
2022-12-03T07:09:58.556Z,5.55
2022-12-03T07:12:25.796Z,8.15
2022-12-03T07:14:53.371Z,6.93
2022-12-03T07:17:21.067Z,6.63
2022-12-03T07:19:48.377Z,6.63
2022-12-03T07:22:15.583Z,6.47
2022-12-03T07:24:42.935Z,6.57
2022-12-03T07:27:10.392Z,6.78
2022-12-03T07:29:37.679Z,7.88
2022-12-03T07:32:05.140Z,6.22
2022-12-03T07:34:32.393Z,7.28
2022-12-03T07:36:59.666Z,7.32
2022-12-03T07:39:26.998Z,7.53
2022-12-03T07:41:54.280Z,7.13
2022-12-03T07:44:21.551Z,6.55
2022-12-03T07:46:48.873Z,5.70
2022-12-03T07:49:16.557Z,5.72
2022-12-03T07:51:49.479Z,7.07
2022-12-03T07:54:16.752Z,6.22
2022-12-03T07:56:44.290Z,5.68
2022-12-03T07:59:11.717Z,6.35
2022-12-03T08:01:42.479Z,6.93
2022-12-03T08:04:09.834Z,6.53
2022-12-03T08:06:37.120Z,6.60
2022-12-03T08:09:04.340Z,7.22
2022-12-03T08:11:32.967Z,6.10
2022-12-03T08:14:00.259Z,5.68
2022-12-03T08:16:27.588Z,6.55
2022-12-03T08:18:57.478Z,5.97
2022-12-03T08:21:24.825Z,6.97
2022-12-03T08:23:52.149Z,6.88
2022-12-03T08:26:24.358Z,5.72
2022-12-03T08:28:52.025Z,5.85
2022-12-03T08:31:21.019Z,6.03
2022-12-03T08:33:49.850Z,7.43
2022-12-03T08:36:25.156Z,6.05
2022-12-03T08:39:04.994Z,7.75
2022-12-03T08:41:51.169Z,5.78
2022-12-03T08:44:27.128Z,6.30
2022-12-03T08:47:09.821Z,5.95
2022-12-03T08:49:37.344Z,6.13
2022-12-03T08:52:12.027Z,6.18
2022-12-03T08:54:39.276Z,6.25
2022-12-03T08:57:25.590Z,6.35
2022-12-03T08:59:55.606Z,5.93
2022-12-03T09:02:29.517Z,6.03
2022-12-03T09:04:56.938Z,5.72
2022-12-03T09:07:24.240Z,7.03
2022-12-03T09:09:51.692Z,6.88
2022-12-03T09:12:19.040Z,5.47
2022-12-03T09:14:46.391Z,6.38
2022-12-03T09:17:13.628Z,6.60
2022-12-03T09:19:46.287Z,6.13
2022-12-03T09:22:15.277Z,5.75
2022-12-03T09:24:42.597Z,6.38
2022-12-03T09:27:09.869Z,7.53
2022-12-03T09:29:37.213Z,6.18
2022-12-03T09:32:04.750Z,6.63
2022-12-03T09:34:32.055Z,6.70
2022-12-03T09:36:59.498Z,6.03
2022-12-03T09:39:26.754Z,7.22
2022-12-03T09:41:54.114Z,5.50
2022-12-03T09:44:21.481Z,5.97
2022-12-03T09:46:49.122Z,7.03
2022-12-03T09:49:17.760Z,6.10
2022-12-03T09:51:46.022Z,6.88
2022-12-03T09:54:21.717Z,5.82
2022-12-03T09:56:49.025Z,6.97
2022-12-03T09:59:16.767Z,6.88
2022-12-03T10:01:44.307Z,6.32
2022-12-03T10:04:11.909Z,6.85
2022-12-03T10:06:45.287Z,6.63
2022-12-03T10:09:14.726Z,6.30
2022-12-03T10:11:42.062Z,6.50
2022-12-03T10:14:12.357Z,8.15
2022-12-03T10:16:40.464Z,6.28
2022-12-03T10:19:10.187Z,7.47
2022-12-03T10:21:38.613Z,6.72
2022-12-03T10:24:17.871Z,7.70
2022-12-03T10:26:46.136Z,6.28
2022-12-03T10:29:28.314Z,6.47
2022-12-03T10:32:05.212Z,7.47
2022-12-03T10:34:34.027Z,7.40
2022-12-03T10:37:10.635Z,6.50
2022-12-03T10:39:56.297Z,6.32
2022-12-03T10:42:24.203Z,6.40
2022-12-03T10:45:07.147Z,5.90
2022-12-03T10:47:34.672Z,6.97
2022-12-03T10:50:04.186Z,7.28
2022-12-03T10:52:31.546Z,6.70
2022-12-03T10:54:58.919Z,7.57
2022-12-03T10:57:26.258Z,7.47
2022-12-03T10:59:53.534Z,7.35
2022-12-03T11:02:22.686Z,6.82
2022-12-03T11:04:50.583Z,7.38
2022-12-03T11:07:22.436Z,6.47
2022-12-03T11:09:51.148Z,7.07
2022-12-03T11:12:20.173Z,6.70
2022-12-03T11:14:51.105Z,8.02
2022-12-03T11:17:37.324Z,7.47
2022-12-03T11:20:16.829Z,7.05
2022-12-03T11:22:50.586Z,7.28
2022-12-03T11:25:27.063Z,7.97
2022-12-03T11:28:20.565Z,7.80
2022-12-03T11:30:53.897Z,7.10
2022-12-03T11:33:32.213Z,7.88
2022-12-03T11:36:05.636Z,7.53
2022-12-03T11:38:40.950Z,8.23
2022-12-03T11:41:09.238Z,6.93
2022-12-03T11:43:57.758Z,7.38
2022-12-03T11:46:29.546Z,6.97
2022-12-03T11:49:03.170Z,6.78
2022-12-03T11:51:41.206Z,8.38
2022-12-03T11:54:20.254Z,7.07
2022-12-03T11:56:51.572Z,7.60
2022-12-03T11:59:19.292Z,7.82
2022-12-03T12:01:48.628Z,6.15
2022-12-03T12:04:46.664Z,7.00
2022-12-03T12:07:16.016Z,7.10
2022-12-03T12:09:52.838Z,7.50
2022-12-03T12:12:31.291Z,6.07
2022-12-03T12:15:01.606Z,7.15
2022-12-03T12:17:29.930Z,8.00
2022-12-03T12:20:16.073Z,6.90
2022-12-03T12:22:43.613Z,6.53
2022-12-03T12:25:29.777Z,7.32
2022-12-03T12:27:57.993Z,6.55
2022-12-03T12:30:30.218Z,8.25
2022-12-03T12:33:13.216Z,8.50
2022-12-03T12:35:41.554Z,6.32
2022-12-03T12:38:10.918Z,7.20
2022-12-03T12:40:53.293Z,8.13
2022-12-03T12:46:47.279Z,7.20
2022-12-03T12:49:24.266Z,8.40
2022-12-03T12:51:53.757Z,8.02
2022-12-03T12:54:26.268Z,7.80
2022-12-03T12:56:56.196Z,8.32
2022-12-03T12:59:30.493Z,8.10
2022-12-03T13:02:08.496Z,7.45
2022-12-03T13:04:42.054Z,7.70
2022-12-03T13:07:31.775Z,7.70
2022-12-03T13:10:18.292Z,7.35
2022-12-03T13:12:45.588Z,7.90
2022-12-03T13:15:48.434Z,7.60
2022-12-03T13:18:29.128Z,8.02
2022-12-03T13:20:56.666Z,7.45
2022-12-03T13:23:29.570Z,7.45
2022-12-03T13:26:02.293Z,7.05
2022-12-03T13:28:41.852Z,8.18
2022-12-03T13:31:30.373Z,7.82
2022-12-03T13:34:00.968Z,7.13
2022-12-03T13:36:36.953Z,7.63
2022-12-03T13:39:17.975Z,7.97
2022-12-03T13:42:27.841Z,8.02
2022-12-03T13:44:56.973Z,6.05
2022-12-03T13:47:24.664Z,6.32
2022-12-03T13:49:59.197Z,7.55
2022-12-03T13:52:29.920Z,7.90
2022-12-03T13:55:01.943Z,7.50
2022-12-03T13:57:31.072Z,7.47
2022-12-03T13:59:58.396Z,8.07
2022-12-03T14:02:30.995Z,7.68
2022-12-03T14:05:00.485Z,6.68
2022-12-03T14:07:28.311Z,7.53
2022-12-03T14:09:58.622Z,7.38
2022-12-03T14:42:04.561Z,7.57
2022-12-03T14:44:32.252Z,8.73
2022-12-03T14:46:59.562Z,8.48
2022-12-03T14:49:29.304Z,7.80
2022-12-03T14:51:56.724Z,8.48
2022-12-03T14:54:24.234Z,7.95
